<?xml version="1.0" encoding="UTF-8" standalone="no" ?>
<gpx xmlns="http://www.topografix.com/GPX/1/1" xmlns:xsi="http://www.w3.org/2001/XMLSchema-instance" xsi:schemaLocation="http://www.topografix.com/GPX/1/1 http://www.topografix.com/GPX/1/1/gpx.xsd" version="1.1" creator="VisuGPX - https://www.visugpx.com">
  <metadata>
    <name>Course à pied le midi</name>
  </metadata>
  <trk>
    <name><![CDATA[Course à pied le midi_1]]></name>
    <trkseg>
      <trkpt lat="48.65383" lon="7.14874">
        <ele>325.8</ele>
        <time>2023-11-09T10:47:53Z</time>
      </trkpt>
      <trkpt lat="48.65387" lon="7.14847">
        <ele>325.9</ele>
        <time>2023-11-09T10:47:59Z</time>
      </trkpt>
      <trkpt lat="48.65385" lon="7.14819">
        <ele>325.9</ele>
        <time>2023-11-09T10:48:06Z</time>
      </trkpt>
      <trkpt lat="48.6539" lon="7.14793">
        <ele>325.9</ele>
        <time>2023-11-09T10:48:13Z</time>
      </trkpt>
      <trkpt lat="48.65387" lon="7.14765">
        <ele>326.3</ele>
        <time>2023-11-09T10:48:21Z</time>
      </trkpt>
      <trkpt lat="48.65368" lon="7.14761">
        <ele>327.3</ele>
        <time>2023-11-09T10:48:29Z</time>
      </trkpt>
      <trkpt lat="48.65348" lon="7.14763">
        <ele>328.8</ele>
        <time>2023-11-09T10:48:38Z</time>
      </trkpt>
      <trkpt lat="48.65334" lon="7.14745">
        <ele>330.3</ele>
        <time>2023-11-09T10:48:45Z</time>
      </trkpt>
      <trkpt lat="48.65327" lon="7.14717">
        <ele>332.1</ele>
        <time>2023-11-09T10:48:54Z</time>
      </trkpt>
      <trkpt lat="48.65321" lon="7.14689">
        <ele>333.8</ele>
        <time>2023-11-09T10:49:01Z</time>
      </trkpt>
      <trkpt lat="48.65317" lon="7.14661">
        <ele>335.2</ele>
        <time>2023-11-09T10:49:09Z</time>
      </trkpt>
      <trkpt lat="48.65306" lon="7.14636">
        <ele>336.6</ele>
        <time>2023-11-09T10:49:18Z</time>
      </trkpt>
      <trkpt lat="48.65291" lon="7.14616">
        <ele>338.1</ele>
        <time>2023-11-09T10:49:27Z</time>
      </trkpt>
      <trkpt lat="48.65284" lon="7.14588">
        <ele>339.7</ele>
        <time>2023-11-09T10:49:36Z</time>
      </trkpt>
      <trkpt lat="48.6528" lon="7.14561">
        <ele>340.9</ele>
        <time>2023-11-09T10:49:44Z</time>
      </trkpt>
      <trkpt lat="48.65277" lon="7.14531">
        <ele>343.2</ele>
        <time>2023-11-09T10:49:53Z</time>
      </trkpt>
      <trkpt lat="48.65272" lon="7.14503">
        <ele>345.5</ele>
        <time>2023-11-09T10:50:02Z</time>
      </trkpt>
      <trkpt lat="48.65267" lon="7.14474">
        <ele>348</ele>
        <time>2023-11-09T10:50:11Z</time>
      </trkpt>
      <trkpt lat="48.65262" lon="7.14445">
        <ele>350.1</ele>
        <time>2023-11-09T10:50:21Z</time>
      </trkpt>
      <trkpt lat="48.65253" lon="7.14419">
        <ele>351.8</ele>
        <time>2023-11-09T10:50:30Z</time>
      </trkpt>
      <trkpt lat="48.65242" lon="7.14395">
        <ele>353.7</ele>
        <time>2023-11-09T10:50:39Z</time>
      </trkpt>
      <trkpt lat="48.65229" lon="7.14374">
        <ele>356.1</ele>
        <time>2023-11-09T10:50:49Z</time>
      </trkpt>
      <trkpt lat="48.65217" lon="7.14352">
        <ele>358.5</ele>
        <time>2023-11-09T10:50:59Z</time>
      </trkpt>
      <trkpt lat="48.65206" lon="7.14326">
        <ele>361.2</ele>
        <time>2023-11-09T10:51:09Z</time>
      </trkpt>
      <trkpt lat="48.65191" lon="7.14307">
        <ele>364</ele>
        <time>2023-11-09T10:51:20Z</time>
      </trkpt>
      <trkpt lat="48.6518" lon="7.14283">
        <ele>367.1</ele>
        <time>2023-11-09T10:51:30Z</time>
      </trkpt>
      <trkpt lat="48.65166" lon="7.14262">
        <ele>370.2</ele>
        <time>2023-11-09T10:51:40Z</time>
      </trkpt>
      <trkpt lat="48.65153" lon="7.1424">
        <ele>373.1</ele>
        <time>2023-11-09T10:51:49Z</time>
      </trkpt>
      <trkpt lat="48.65142" lon="7.14215">
        <ele>375.9</ele>
        <time>2023-11-09T10:51:59Z</time>
      </trkpt>
      <trkpt lat="48.6513" lon="7.14192">
        <ele>378.5</ele>
        <time>2023-11-09T10:52:09Z</time>
      </trkpt>
      <trkpt lat="48.65117" lon="7.14169">
        <ele>380.7</ele>
        <time>2023-11-09T10:52:19Z</time>
      </trkpt>
      <trkpt lat="48.65107" lon="7.14143">
        <ele>382.6</ele>
        <time>2023-11-09T10:52:28Z</time>
      </trkpt>
      <trkpt lat="48.65095" lon="7.14117">
        <ele>384.3</ele>
        <time>2023-11-09T10:52:36Z</time>
      </trkpt>
      <trkpt lat="48.65083" lon="7.14096">
        <ele>385.7</ele>
        <time>2023-11-09T10:52:43Z</time>
      </trkpt>
      <trkpt lat="48.65072" lon="7.14074">
        <ele>387.3</ele>
        <time>2023-11-09T10:52:50Z</time>
      </trkpt>
      <trkpt lat="48.65063" lon="7.14049">
        <ele>388.9</ele>
        <time>2023-11-09T10:52:58Z</time>
      </trkpt>
      <trkpt lat="48.65053" lon="7.14023">
        <ele>391</ele>
        <time>2023-11-09T10:53:06Z</time>
      </trkpt>
      <trkpt lat="48.65044" lon="7.13996">
        <ele>393.4</ele>
        <time>2023-11-09T10:53:17Z</time>
      </trkpt>
      <trkpt lat="48.65038" lon="7.13969">
        <ele>395.9</ele>
        <time>2023-11-09T10:53:27Z</time>
      </trkpt>
      <trkpt lat="48.65034" lon="7.13941">
        <ele>398.3</ele>
        <time>2023-11-09T10:53:37Z</time>
      </trkpt>
      <trkpt lat="48.65033" lon="7.13924">
        <ele>399.9</ele>
        <time>2023-11-09T10:53:44Z</time>
      </trkpt>
      <trkpt lat="48.65027" lon="7.13897">
        <ele>402.5</ele>
        <time>2023-11-09T10:53:54Z</time>
      </trkpt>
      <trkpt lat="48.65013" lon="7.13878">
        <ele>405.7</ele>
        <time>2023-11-09T10:54:03Z</time>
      </trkpt>
      <trkpt lat="48.65004" lon="7.13854">
        <ele>409.4</ele>
        <time>2023-11-09T10:54:14Z</time>
      </trkpt>
      <trkpt lat="48.65" lon="7.13825">
        <ele>413.4</ele>
        <time>2023-11-09T10:54:25Z</time>
      </trkpt>
      <trkpt lat="48.64993" lon="7.13799">
        <ele>417.1</ele>
        <time>2023-11-09T10:54:36Z</time>
      </trkpt>
      <trkpt lat="48.64989" lon="7.1377">
        <ele>420.3</ele>
        <time>2023-11-09T10:54:47Z</time>
      </trkpt>
      <trkpt lat="48.64982" lon="7.13743">
        <ele>422.8</ele>
        <time>2023-11-09T10:54:57Z</time>
      </trkpt>
      <trkpt lat="48.64974" lon="7.13718">
        <ele>425.2</ele>
        <time>2023-11-09T10:55:06Z</time>
      </trkpt>
      <trkpt lat="48.64963" lon="7.13694">
        <ele>427.5</ele>
        <time>2023-11-09T10:55:16Z</time>
      </trkpt>
      <trkpt lat="48.6495" lon="7.13671">
        <ele>429.9</ele>
        <time>2023-11-09T10:55:25Z</time>
      </trkpt>
      <trkpt lat="48.64937" lon="7.13649">
        <ele>432</ele>
        <time>2023-11-09T10:55:35Z</time>
      </trkpt>
      <trkpt lat="48.64931" lon="7.13642">
        <ele>432.5</ele>
        <time>2023-11-09T10:55:39Z</time>
      </trkpt>
      <trkpt lat="48.64929" lon="7.13644">
        <ele>433.4</ele>
        <time>2023-11-09T10:55:41Z</time>
      </trkpt>
      <trkpt lat="48.64916" lon="7.13665">
        <ele>434.7</ele>
        <time>2023-11-09T10:55:54Z</time>
      </trkpt>
      <trkpt lat="48.64901" lon="7.13684">
        <ele>436.2</ele>
        <time>2023-11-09T10:56:05Z</time>
      </trkpt>
      <trkpt lat="48.64885" lon="7.13696">
        <ele>438</ele>
        <time>2023-11-09T10:56:14Z</time>
      </trkpt>
      <trkpt lat="48.6487" lon="7.13711">
        <ele>439.9</ele>
        <time>2023-11-09T10:56:26Z</time>
      </trkpt>
      <trkpt lat="48.64868" lon="7.13711">
        <ele>440.1</ele>
        <time>2023-11-09T10:56:27Z</time>
      </trkpt>
      <trkpt lat="48.6485" lon="7.137">
        <ele>442.4</ele>
        <time>2023-11-09T10:56:36Z</time>
      </trkpt>
      <trkpt lat="48.64832" lon="7.1371">
        <ele>444.9</ele>
        <time>2023-11-09T10:56:44Z</time>
      </trkpt>
      <trkpt lat="48.64815" lon="7.13723">
        <ele>447.6</ele>
        <time>2023-11-09T10:56:52Z</time>
      </trkpt>
      <trkpt lat="48.648" lon="7.13742">
        <ele>450.6</ele>
        <time>2023-11-09T10:57:01Z</time>
      </trkpt>
      <trkpt lat="48.64784" lon="7.13759">
        <ele>453.2</ele>
        <time>2023-11-09T10:57:07Z</time>
      </trkpt>
      <trkpt lat="48.64772" lon="7.13779">
        <ele>455.1</ele>
        <time>2023-11-09T10:57:14Z</time>
      </trkpt>
      <trkpt lat="48.64759" lon="7.13803">
        <ele>456.8</ele>
        <time>2023-11-09T10:57:20Z</time>
      </trkpt>
      <trkpt lat="48.6475" lon="7.13831">
        <ele>458</ele>
        <time>2023-11-09T10:57:27Z</time>
      </trkpt>
      <trkpt lat="48.64734" lon="7.13849">
        <ele>458</ele>
        <time>2023-11-09T10:57:33Z</time>
      </trkpt>
      <trkpt lat="48.64718" lon="7.13863">
        <ele>457.6</ele>
        <time>2023-11-09T10:57:39Z</time>
      </trkpt>
      <trkpt lat="48.647" lon="7.1387">
        <ele>457</ele>
        <time>2023-11-09T10:57:45Z</time>
      </trkpt>
      <trkpt lat="48.6468" lon="7.13874">
        <ele>456.3</ele>
        <time>2023-11-09T10:57:53Z</time>
      </trkpt>
      <trkpt lat="48.64661" lon="7.13882">
        <ele>455.2</ele>
        <time>2023-11-09T10:58:01Z</time>
      </trkpt>
      <trkpt lat="48.64643" lon="7.13893">
        <ele>453.2</ele>
        <time>2023-11-09T10:58:06Z</time>
      </trkpt>
      <trkpt lat="48.64626" lon="7.13901">
        <ele>450.9</ele>
        <time>2023-11-09T10:58:11Z</time>
      </trkpt>
      <trkpt lat="48.64606" lon="7.13906">
        <ele>448.4</ele>
        <time>2023-11-09T10:58:18Z</time>
      </trkpt>
      <trkpt lat="48.64589" lon="7.1392">
        <ele>445.9</ele>
        <time>2023-11-09T10:58:23Z</time>
      </trkpt>
      <trkpt lat="48.64571" lon="7.13934">
        <ele>443.1</ele>
        <time>2023-11-09T10:58:28Z</time>
      </trkpt>
      <trkpt lat="48.64554" lon="7.13945">
        <ele>440.5</ele>
        <time>2023-11-09T10:58:33Z</time>
      </trkpt>
      <trkpt lat="48.64533" lon="7.13951">
        <ele>437</ele>
        <time>2023-11-09T10:58:39Z</time>
      </trkpt>
      <trkpt lat="48.64514" lon="7.13958">
        <ele>436.2</ele>
        <time>2023-11-09T10:58:45Z</time>
      </trkpt>
      <trkpt lat="48.64499" lon="7.13975">
        <ele>435.5</ele>
        <time>2023-11-09T10:58:49Z</time>
      </trkpt>
      <trkpt lat="48.64484" lon="7.13997">
        <ele>435</ele>
        <time>2023-11-09T10:58:54Z</time>
      </trkpt>
      <trkpt lat="48.64471" lon="7.14023">
        <ele>434.8</ele>
        <time>2023-11-09T10:59:00Z</time>
      </trkpt>
      <trkpt lat="48.64461" lon="7.14047">
        <ele>434.9</ele>
        <time>2023-11-09T10:59:06Z</time>
      </trkpt>
      <trkpt lat="48.64451" lon="7.14073">
        <ele>435.4</ele>
        <time>2023-11-09T10:59:13Z</time>
      </trkpt>
      <trkpt lat="48.64445" lon="7.14103">
        <ele>436.1</ele>
        <time>2023-11-09T10:59:21Z</time>
      </trkpt>
      <trkpt lat="48.6444" lon="7.1413">
        <ele>436.7</ele>
        <time>2023-11-09T10:59:27Z</time>
      </trkpt>
      <trkpt lat="48.64431" lon="7.14155">
        <ele>437.5</ele>
        <time>2023-11-09T10:59:33Z</time>
      </trkpt>
      <trkpt lat="48.64421" lon="7.14179">
        <ele>438.4</ele>
        <time>2023-11-09T10:59:40Z</time>
      </trkpt>
      <trkpt lat="48.64405" lon="7.14197">
        <ele>439.2</ele>
        <time>2023-11-09T10:59:47Z</time>
      </trkpt>
      <trkpt lat="48.64389" lon="7.1421">
        <ele>439.7</ele>
        <time>2023-11-09T10:59:54Z</time>
      </trkpt>
      <trkpt lat="48.64372" lon="7.14221">
        <ele>440.2</ele>
        <time>2023-11-09T11:00:00Z</time>
      </trkpt>
      <trkpt lat="48.64356" lon="7.14234">
        <ele>440.9</ele>
        <time>2023-11-09T11:00:07Z</time>
      </trkpt>
      <trkpt lat="48.64339" lon="7.14246">
        <ele>441.6</ele>
        <time>2023-11-09T11:00:14Z</time>
      </trkpt>
      <trkpt lat="48.64322" lon="7.14263">
        <ele>442.6</ele>
        <time>2023-11-09T11:00:21Z</time>
      </trkpt>
      <trkpt lat="48.64306" lon="7.14279">
        <ele>443.7</ele>
        <time>2023-11-09T11:00:27Z</time>
      </trkpt>
      <trkpt lat="48.64289" lon="7.14295">
        <ele>445.1</ele>
        <time>2023-11-09T11:00:33Z</time>
      </trkpt>
      <trkpt lat="48.64273" lon="7.14312">
        <ele>446.7</ele>
        <time>2023-11-09T11:00:41Z</time>
      </trkpt>
      <trkpt lat="48.64255" lon="7.14322">
        <ele>448.4</ele>
        <time>2023-11-09T11:00:49Z</time>
      </trkpt>
      <trkpt lat="48.64234" lon="7.14326">
        <ele>450.2</ele>
        <time>2023-11-09T11:00:58Z</time>
      </trkpt>
      <trkpt lat="48.64216" lon="7.14329">
        <ele>451.4</ele>
        <time>2023-11-09T11:01:06Z</time>
      </trkpt>
      <trkpt lat="48.64195" lon="7.14335">
        <ele>452.5</ele>
        <time>2023-11-09T11:01:13Z</time>
      </trkpt>
      <trkpt lat="48.64176" lon="7.14347">
        <ele>453.7</ele>
        <time>2023-11-09T11:01:20Z</time>
      </trkpt>
      <trkpt lat="48.64161" lon="7.14369">
        <ele>455.1</ele>
        <time>2023-11-09T11:01:26Z</time>
      </trkpt>
      <trkpt lat="48.64151" lon="7.14394">
        <ele>456.2</ele>
        <time>2023-11-09T11:01:32Z</time>
      </trkpt>
      <trkpt lat="48.64144" lon="7.14419">
        <ele>457</ele>
        <time>2023-11-09T11:01:38Z</time>
      </trkpt>
      <trkpt lat="48.64135" lon="7.14448">
        <ele>457.4</ele>
        <time>2023-11-09T11:01:45Z</time>
      </trkpt>
      <trkpt lat="48.64127" lon="7.14477">
        <ele>457.8</ele>
        <time>2023-11-09T11:01:52Z</time>
      </trkpt>
      <trkpt lat="48.64118" lon="7.14502">
        <ele>458.1</ele>
        <time>2023-11-09T11:01:58Z</time>
      </trkpt>
      <trkpt lat="48.6411" lon="7.1453">
        <ele>458.1</ele>
        <time>2023-11-09T11:02:05Z</time>
      </trkpt>
      <trkpt lat="48.641" lon="7.14554">
        <ele>457.8</ele>
        <time>2023-11-09T11:02:11Z</time>
      </trkpt>
      <trkpt lat="48.64086" lon="7.14573">
        <ele>457.1</ele>
        <time>2023-11-09T11:02:16Z</time>
      </trkpt>
      <trkpt lat="48.64068" lon="7.14586">
        <ele>456.2</ele>
        <time>2023-11-09T11:02:21Z</time>
      </trkpt>
      <trkpt lat="48.6405" lon="7.1459">
        <ele>455.2</ele>
        <time>2023-11-09T11:02:27Z</time>
      </trkpt>
      <trkpt lat="48.64032" lon="7.14581">
        <ele>453.8</ele>
        <time>2023-11-09T11:02:34Z</time>
      </trkpt>
      <trkpt lat="48.64013" lon="7.14592">
        <ele>452.5</ele>
        <time>2023-11-09T11:02:40Z</time>
      </trkpt>
      <trkpt lat="48.63995" lon="7.14609">
        <ele>451.3</ele>
        <time>2023-11-09T11:02:46Z</time>
      </trkpt>
      <trkpt lat="48.63978" lon="7.14629">
        <ele>450.2</ele>
        <time>2023-11-09T11:02:52Z</time>
      </trkpt>
      <trkpt lat="48.63963" lon="7.1465">
        <ele>449.2</ele>
        <time>2023-11-09T11:02:58Z</time>
      </trkpt>
      <trkpt lat="48.6395" lon="7.1467">
        <ele>448.5</ele>
        <time>2023-11-09T11:03:03Z</time>
      </trkpt>
      <trkpt lat="48.63935" lon="7.1469">
        <ele>447.1</ele>
        <time>2023-11-09T11:03:09Z</time>
      </trkpt>
      <trkpt lat="48.63917" lon="7.14705">
        <ele>445.7</ele>
        <time>2023-11-09T11:03:15Z</time>
      </trkpt>
      <trkpt lat="48.63901" lon="7.14725">
        <ele>447</ele>
        <time>2023-11-09T11:03:22Z</time>
      </trkpt>
      <trkpt lat="48.63891" lon="7.14749">
        <ele>449.2</ele>
        <time>2023-11-09T11:03:30Z</time>
      </trkpt>
      <trkpt lat="48.63881" lon="7.14773">
        <ele>451.4</ele>
        <time>2023-11-09T11:03:37Z</time>
      </trkpt>
      <trkpt lat="48.63863" lon="7.14761">
        <ele>453.5</ele>
        <time>2023-11-09T11:03:49Z</time>
      </trkpt>
      <trkpt lat="48.63846" lon="7.1475">
        <ele>453.7</ele>
        <time>2023-11-09T11:03:56Z</time>
      </trkpt>
      <trkpt lat="48.63827" lon="7.14745">
        <ele>455.5</ele>
        <time>2023-11-09T11:04:02Z</time>
      </trkpt>
      <trkpt lat="48.63808" lon="7.14738">
        <ele>457.8</ele>
        <time>2023-11-09T11:04:10Z</time>
      </trkpt>
      <trkpt lat="48.63789" lon="7.1473">
        <ele>460.2</ele>
        <time>2023-11-09T11:04:18Z</time>
      </trkpt>
      <trkpt lat="48.63772" lon="7.14718">
        <ele>462.3</ele>
        <time>2023-11-09T11:04:26Z</time>
      </trkpt>
      <trkpt lat="48.63755" lon="7.14709">
        <ele>464.3</ele>
        <time>2023-11-09T11:04:33Z</time>
      </trkpt>
      <trkpt lat="48.63737" lon="7.147">
        <ele>466.7</ele>
        <time>2023-11-09T11:04:41Z</time>
      </trkpt>
      <trkpt lat="48.63718" lon="7.14697">
        <ele>469.2</ele>
        <time>2023-11-09T11:04:51Z</time>
      </trkpt>
      <trkpt lat="48.637" lon="7.14706">
        <ele>471.8</ele>
        <time>2023-11-09T11:05:02Z</time>
      </trkpt>
      <trkpt lat="48.63681" lon="7.14716">
        <ele>474.2</ele>
        <time>2023-11-09T11:05:10Z</time>
      </trkpt>
      <trkpt lat="48.63662" lon="7.1473">
        <ele>474.9</ele>
        <time>2023-11-09T11:05:16Z</time>
      </trkpt>
      <trkpt lat="48.63645" lon="7.14749">
        <ele>474.1</ele>
        <time>2023-11-09T11:05:21Z</time>
      </trkpt>
      <trkpt lat="48.63632" lon="7.14769">
        <ele>473.8</ele>
        <time>2023-11-09T11:05:26Z</time>
      </trkpt>
      <trkpt lat="48.63623" lon="7.14796">
        <ele>473.8</ele>
        <time>2023-11-09T11:05:33Z</time>
      </trkpt>
      <trkpt lat="48.63614" lon="7.14824">
        <ele>473.9</ele>
        <time>2023-11-09T11:05:39Z</time>
      </trkpt>
      <trkpt lat="48.63608" lon="7.14853">
        <ele>473.9</ele>
        <time>2023-11-09T11:05:46Z</time>
      </trkpt>
      <trkpt lat="48.63602" lon="7.14879">
        <ele>474.3</ele>
        <time>2023-11-09T11:05:52Z</time>
      </trkpt>
      <trkpt lat="48.63594" lon="7.14904">
        <ele>474.7</ele>
        <time>2023-11-09T11:05:57Z</time>
      </trkpt>
      <trkpt lat="48.6359" lon="7.14933">
        <ele>474.6</ele>
        <time>2023-11-09T11:06:02Z</time>
      </trkpt>
      <trkpt lat="48.63585" lon="7.14961">
        <ele>474.2</ele>
        <time>2023-11-09T11:06:07Z</time>
      </trkpt>
      <trkpt lat="48.63581" lon="7.14993">
        <ele>473.9</ele>
        <time>2023-11-09T11:06:13Z</time>
      </trkpt>
      <trkpt lat="48.63575" lon="7.1502">
        <ele>473.8</ele>
        <time>2023-11-09T11:06:18Z</time>
      </trkpt>
      <trkpt lat="48.63567" lon="7.15049">
        <ele>474</ele>
        <time>2023-11-09T11:06:24Z</time>
      </trkpt>
      <trkpt lat="48.63559" lon="7.15075">
        <ele>474.6</ele>
        <time>2023-11-09T11:06:30Z</time>
      </trkpt>
      <trkpt lat="48.63552" lon="7.15102">
        <ele>475.1</ele>
        <time>2023-11-09T11:06:37Z</time>
      </trkpt>
      <trkpt lat="48.63541" lon="7.15124">
        <ele>477.4</ele>
        <time>2023-11-09T11:06:46Z</time>
      </trkpt>
      <trkpt lat="48.63532" lon="7.15151">
        <ele>478.8</ele>
        <time>2023-11-09T11:06:54Z</time>
      </trkpt>
      <trkpt lat="48.63524" lon="7.15175">
        <ele>479.2</ele>
        <time>2023-11-09T11:07:00Z</time>
      </trkpt>
      <trkpt lat="48.63532" lon="7.152">
        <ele>478.1</ele>
        <time>2023-11-09T11:07:06Z</time>
      </trkpt>
      <trkpt lat="48.63534" lon="7.15227">
        <ele>476.1</ele>
        <time>2023-11-09T11:07:11Z</time>
      </trkpt>
      <trkpt lat="48.63535" lon="7.15258">
        <ele>473.7</ele>
        <time>2023-11-09T11:07:17Z</time>
      </trkpt>
      <trkpt lat="48.6353" lon="7.15287">
        <ele>471.6</ele>
        <time>2023-11-09T11:07:22Z</time>
      </trkpt>
      <trkpt lat="48.63527" lon="7.15319">
        <ele>469.2</ele>
        <time>2023-11-09T11:07:28Z</time>
      </trkpt>
      <trkpt lat="48.63525" lon="7.15349">
        <ele>467</ele>
        <time>2023-11-09T11:07:34Z</time>
      </trkpt>
      <trkpt lat="48.63523" lon="7.1538">
        <ele>465.2</ele>
        <time>2023-11-09T11:07:40Z</time>
      </trkpt>
      <trkpt lat="48.63522" lon="7.1541">
        <ele>464.3</ele>
        <time>2023-11-09T11:07:45Z</time>
      </trkpt>
      <trkpt lat="48.63522" lon="7.15441">
        <ele>463.1</ele>
        <time>2023-11-09T11:07:51Z</time>
      </trkpt>
      <trkpt lat="48.63526" lon="7.1547">
        <ele>460.8</ele>
        <time>2023-11-09T11:07:57Z</time>
      </trkpt>
      <trkpt lat="48.6353" lon="7.155">
        <ele>458.4</ele>
        <time>2023-11-09T11:08:03Z</time>
      </trkpt>
      <trkpt lat="48.63537" lon="7.1553">
        <ele>456.1</ele>
        <time>2023-11-09T11:08:09Z</time>
      </trkpt>
      <trkpt lat="48.63543" lon="7.1556">
        <ele>454.1</ele>
        <time>2023-11-09T11:08:15Z</time>
      </trkpt>
      <trkpt lat="48.63552" lon="7.15586">
        <ele>452.2</ele>
        <time>2023-11-09T11:08:20Z</time>
      </trkpt>
      <trkpt lat="48.63556" lon="7.15614">
        <ele>450</ele>
        <time>2023-11-09T11:08:25Z</time>
      </trkpt>
      <trkpt lat="48.63557" lon="7.15643">
        <ele>447.9</ele>
        <time>2023-11-09T11:08:31Z</time>
      </trkpt>
      <trkpt lat="48.6356" lon="7.15673">
        <ele>445.7</ele>
        <time>2023-11-09T11:08:37Z</time>
      </trkpt>
      <trkpt lat="48.63563" lon="7.157">
        <ele>443.7</ele>
        <time>2023-11-09T11:08:42Z</time>
      </trkpt>
      <trkpt lat="48.63555" lon="7.15726">
        <ele>441.9</ele>
        <time>2023-11-09T11:08:48Z</time>
      </trkpt>
      <trkpt lat="48.63537" lon="7.1573">
        <ele>440.4</ele>
        <time>2023-11-09T11:08:56Z</time>
      </trkpt>
      <trkpt lat="48.63518" lon="7.15734">
        <ele>439</ele>
        <time>2023-11-09T11:09:01Z</time>
      </trkpt>
      <trkpt lat="48.635" lon="7.15743">
        <ele>437.7</ele>
        <time>2023-11-09T11:09:07Z</time>
      </trkpt>
      <trkpt lat="48.63484" lon="7.15756">
        <ele>436.4</ele>
        <time>2023-11-09T11:09:14Z</time>
      </trkpt>
      <trkpt lat="48.63465" lon="7.15771">
        <ele>435.3</ele>
        <time>2023-11-09T11:09:21Z</time>
      </trkpt>
      <trkpt lat="48.63449" lon="7.15785">
        <ele>434.4</ele>
        <time>2023-11-09T11:09:27Z</time>
      </trkpt>
      <trkpt lat="48.63431" lon="7.15799">
        <ele>433.6</ele>
        <time>2023-11-09T11:09:34Z</time>
      </trkpt>
      <trkpt lat="48.63413" lon="7.15809">
        <ele>432.9</ele>
        <time>2023-11-09T11:09:38Z</time>
      </trkpt>
      <trkpt lat="48.63392" lon="7.15822">
        <ele>432</ele>
        <time>2023-11-09T11:09:43Z</time>
      </trkpt>
      <trkpt lat="48.63372" lon="7.15836">
        <ele>431.3</ele>
        <time>2023-11-09T11:09:48Z</time>
      </trkpt>
      <trkpt lat="48.63356" lon="7.15848">
        <ele>430.9</ele>
        <time>2023-11-09T11:09:54Z</time>
      </trkpt>
      <trkpt lat="48.6334" lon="7.15861">
        <ele>430.6</ele>
        <time>2023-11-09T11:10:01Z</time>
      </trkpt>
      <trkpt lat="48.63322" lon="7.15877">
        <ele>430.3</ele>
        <time>2023-11-09T11:10:07Z</time>
      </trkpt>
      <trkpt lat="48.63306" lon="7.15893">
        <ele>429.9</ele>
        <time>2023-11-09T11:10:12Z</time>
      </trkpt>
      <trkpt lat="48.63294" lon="7.15914">
        <ele>429.4</ele>
        <time>2023-11-09T11:10:17Z</time>
      </trkpt>
      <trkpt lat="48.63283" lon="7.15936">
        <ele>429</ele>
        <time>2023-11-09T11:10:21Z</time>
      </trkpt>
      <trkpt lat="48.63274" lon="7.15961">
        <ele>428</ele>
        <time>2023-11-09T11:10:26Z</time>
      </trkpt>
      <trkpt lat="48.63266" lon="7.1599">
        <ele>426.5</ele>
        <time>2023-11-09T11:10:30Z</time>
      </trkpt>
      <trkpt lat="48.63253" lon="7.16014">
        <ele>425.9</ele>
        <time>2023-11-09T11:10:35Z</time>
      </trkpt>
      <trkpt lat="48.63239" lon="7.16038">
        <ele>425.9</ele>
        <time>2023-11-09T11:10:41Z</time>
      </trkpt>
      <trkpt lat="48.63225" lon="7.16061">
        <ele>425.7</ele>
        <time>2023-11-09T11:10:47Z</time>
      </trkpt>
      <trkpt lat="48.63214" lon="7.16085">
        <ele>425.4</ele>
        <time>2023-11-09T11:10:54Z</time>
      </trkpt>
      <trkpt lat="48.63198" lon="7.16109">
        <ele>424.9</ele>
        <time>2023-11-09T11:11:01Z</time>
      </trkpt>
      <trkpt lat="48.63183" lon="7.16128">
        <ele>424.4</ele>
        <time>2023-11-09T11:11:07Z</time>
      </trkpt>
      <trkpt lat="48.63169" lon="7.16147">
        <ele>423.9</ele>
        <time>2023-11-09T11:11:12Z</time>
      </trkpt>
      <trkpt lat="48.63154" lon="7.16167">
        <ele>423.3</ele>
        <time>2023-11-09T11:11:17Z</time>
      </trkpt>
      <trkpt lat="48.63137" lon="7.16183">
        <ele>422.5</ele>
        <time>2023-11-09T11:11:23Z</time>
      </trkpt>
      <trkpt lat="48.6312" lon="7.16201">
        <ele>421.4</ele>
        <time>2023-11-09T11:11:30Z</time>
      </trkpt>
      <trkpt lat="48.63103" lon="7.1622">
        <ele>419.9</ele>
        <time>2023-11-09T11:11:36Z</time>
      </trkpt>
      <trkpt lat="48.63087" lon="7.16236">
        <ele>418.9</ele>
        <time>2023-11-09T11:11:40Z</time>
      </trkpt>
      <trkpt lat="48.63072" lon="7.16255">
        <ele>419.8</ele>
        <time>2023-11-09T11:11:46Z</time>
      </trkpt>
      <trkpt lat="48.63059" lon="7.16274">
        <ele>420.7</ele>
        <time>2023-11-09T11:11:51Z</time>
      </trkpt>
      <trkpt lat="48.6304" lon="7.16287">
        <ele>421.2</ele>
        <time>2023-11-09T11:11:58Z</time>
      </trkpt>
      <trkpt lat="48.63022" lon="7.16291">
        <ele>421.2</ele>
        <time>2023-11-09T11:12:05Z</time>
      </trkpt>
      <trkpt lat="48.63005" lon="7.16283">
        <ele>421</ele>
        <time>2023-11-09T11:12:10Z</time>
      </trkpt>
      <trkpt lat="48.62988" lon="7.16265">
        <ele>420.7</ele>
        <time>2023-11-09T11:12:16Z</time>
      </trkpt>
      <trkpt lat="48.62971" lon="7.16255">
        <ele>420.5</ele>
        <time>2023-11-09T11:12:22Z</time>
      </trkpt>
      <trkpt lat="48.62953" lon="7.16253">
        <ele>420.6</ele>
        <time>2023-11-09T11:12:27Z</time>
      </trkpt>
      <trkpt lat="48.62934" lon="7.16248">
        <ele>420.6</ele>
        <time>2023-11-09T11:12:33Z</time>
      </trkpt>
      <trkpt lat="48.6292" lon="7.16262">
        <ele>420.6</ele>
        <time>2023-11-09T11:12:39Z</time>
      </trkpt>
      <trkpt lat="48.6291" lon="7.16287">
        <ele>420.6</ele>
        <time>2023-11-09T11:12:44Z</time>
      </trkpt>
      <trkpt lat="48.62908" lon="7.16315">
        <ele>420.9</ele>
        <time>2023-11-09T11:12:50Z</time>
      </trkpt>
      <trkpt lat="48.62909" lon="7.16343">
        <ele>421.1</ele>
        <time>2023-11-09T11:12:56Z</time>
      </trkpt>
      <trkpt lat="48.62914" lon="7.16374">
        <ele>420.9</ele>
        <time>2023-11-09T11:13:02Z</time>
      </trkpt>
      <trkpt lat="48.62916" lon="7.16406">
        <ele>421</ele>
        <time>2023-11-09T11:13:08Z</time>
      </trkpt>
      <trkpt lat="48.62904" lon="7.16428">
        <ele>421.1</ele>
        <time>2023-11-09T11:13:14Z</time>
      </trkpt>
      <trkpt lat="48.62886" lon="7.16442">
        <ele>420.6</ele>
        <time>2023-11-09T11:13:21Z</time>
      </trkpt>
      <trkpt lat="48.62866" lon="7.16441">
        <ele>419.2</ele>
        <time>2023-11-09T11:13:29Z</time>
      </trkpt>
      <trkpt lat="48.62848" lon="7.16433">
        <ele>418</ele>
        <time>2023-11-09T11:13:34Z</time>
      </trkpt>
      <trkpt lat="48.6283" lon="7.16422">
        <ele>416.7</ele>
        <time>2023-11-09T11:13:41Z</time>
      </trkpt>
      <trkpt lat="48.62811" lon="7.16417">
        <ele>415.5</ele>
        <time>2023-11-09T11:13:47Z</time>
      </trkpt>
      <trkpt lat="48.62793" lon="7.16406">
        <ele>414.3</ele>
        <time>2023-11-09T11:13:52Z</time>
      </trkpt>
      <trkpt lat="48.62775" lon="7.16397">
        <ele>413.1</ele>
        <time>2023-11-09T11:13:57Z</time>
      </trkpt>
      <trkpt lat="48.62758" lon="7.16411">
        <ele>411.9</ele>
        <time>2023-11-09T11:14:04Z</time>
      </trkpt>
      <trkpt lat="48.62744" lon="7.16431">
        <ele>410.6</ele>
        <time>2023-11-09T11:14:09Z</time>
      </trkpt>
      <trkpt lat="48.62743" lon="7.16461">
        <ele>409.2</ele>
        <time>2023-11-09T11:14:16Z</time>
      </trkpt>
      <trkpt lat="48.62739" lon="7.16491">
        <ele>407.9</ele>
        <time>2023-11-09T11:14:23Z</time>
      </trkpt>
      <trkpt lat="48.62734" lon="7.16521">
        <ele>406.6</ele>
        <time>2023-11-09T11:14:30Z</time>
      </trkpt>
      <trkpt lat="48.62718" lon="7.16539">
        <ele>405.4</ele>
        <time>2023-11-09T11:14:37Z</time>
      </trkpt>
      <trkpt lat="48.62701" lon="7.16548">
        <ele>404.2</ele>
        <time>2023-11-09T11:14:44Z</time>
      </trkpt>
      <trkpt lat="48.62681" lon="7.1655">
        <ele>402.9</ele>
        <time>2023-11-09T11:14:51Z</time>
      </trkpt>
      <trkpt lat="48.62664" lon="7.16541">
        <ele>401.8</ele>
        <time>2023-11-09T11:14:56Z</time>
      </trkpt>
      <trkpt lat="48.62646" lon="7.16527">
        <ele>400.5</ele>
        <time>2023-11-09T11:15:01Z</time>
      </trkpt>
      <trkpt lat="48.62632" lon="7.16509">
        <ele>398.7</ele>
        <time>2023-11-09T11:15:06Z</time>
      </trkpt>
      <trkpt lat="48.62621" lon="7.165">
        <ele>396.6</ele>
        <time>2023-11-09T11:15:12Z</time>
      </trkpt>
      <trkpt lat="48.62624" lon="7.16527">
        <ele>396.3</ele>
        <time>2023-11-09T11:15:18Z</time>
      </trkpt>
      <trkpt lat="48.62617" lon="7.16554">
        <ele>396.3</ele>
        <time>2023-11-09T11:15:23Z</time>
      </trkpt>
      <trkpt lat="48.62605" lon="7.16575">
        <ele>396.6</ele>
        <time>2023-11-09T11:15:29Z</time>
      </trkpt>
      <trkpt lat="48.62585" lon="7.16585">
        <ele>397.2</ele>
        <time>2023-11-09T11:15:39Z</time>
      </trkpt>
      <trkpt lat="48.62567" lon="7.16591">
        <ele>397.8</ele>
        <time>2023-11-09T11:15:47Z</time>
      </trkpt>
      <trkpt lat="48.62546" lon="7.16595">
        <ele>398.3</ele>
        <time>2023-11-09T11:15:58Z</time>
      </trkpt>
      <trkpt lat="48.6253" lon="7.16609">
        <ele>398.7</ele>
        <time>2023-11-09T11:16:03Z</time>
      </trkpt>
      <trkpt lat="48.62513" lon="7.16624">
        <ele>399.2</ele>
        <time>2023-11-09T11:16:09Z</time>
      </trkpt>
      <trkpt lat="48.62496" lon="7.16641">
        <ele>399.8</ele>
        <time>2023-11-09T11:16:17Z</time>
      </trkpt>
      <trkpt lat="48.62483" lon="7.16666">
        <ele>399.6</ele>
        <time>2023-11-09T11:16:22Z</time>
      </trkpt>
      <trkpt lat="48.62484" lon="7.1667">
        <ele>399.4</ele>
        <time>2023-11-09T11:16:25Z</time>
      </trkpt>
      <trkpt lat="48.62502" lon="7.16666">
        <ele>398.1</ele>
        <time>2023-11-09T11:16:30Z</time>
      </trkpt>
      <trkpt lat="48.6252" lon="7.16653">
        <ele>400.2</ele>
        <time>2023-11-09T11:16:36Z</time>
      </trkpt>
      <trkpt lat="48.62537" lon="7.16645">
        <ele>401.8</ele>
        <time>2023-11-09T11:16:44Z</time>
      </trkpt>
      <trkpt lat="48.62539" lon="7.16643">
        <ele>402.1</ele>
        <time>2023-11-09T11:16:46Z</time>
      </trkpt>
      <trkpt lat="48.62557" lon="7.16633">
        <ele>403.8</ele>
        <time>2023-11-09T11:16:59Z</time>
      </trkpt>
      <trkpt lat="48.62563" lon="7.16638">
        <ele>404.5</ele>
        <time>2023-11-09T11:17:04Z</time>
      </trkpt>
      <trkpt lat="48.62576" lon="7.16661">
        <ele>406.5</ele>
        <time>2023-11-09T11:17:13Z</time>
      </trkpt>
      <trkpt lat="48.62593" lon="7.16675">
        <ele>408.3</ele>
        <time>2023-11-09T11:17:21Z</time>
      </trkpt>
      <trkpt lat="48.62606" lon="7.16696">
        <ele>410.4</ele>
        <time>2023-11-09T11:17:31Z</time>
      </trkpt>
      <trkpt lat="48.62618" lon="7.1672">
        <ele>412.5</ele>
        <time>2023-11-09T11:17:40Z</time>
      </trkpt>
      <trkpt lat="48.6263" lon="7.16742">
        <ele>414.7</ele>
        <time>2023-11-09T11:17:49Z</time>
      </trkpt>
      <trkpt lat="48.62639" lon="7.16769">
        <ele>417</ele>
        <time>2023-11-09T11:17:58Z</time>
      </trkpt>
      <trkpt lat="48.6265" lon="7.16793">
        <ele>419.1</ele>
        <time>2023-11-09T11:18:06Z</time>
      </trkpt>
      <trkpt lat="48.6266" lon="7.16817">
        <ele>420.9</ele>
        <time>2023-11-09T11:18:13Z</time>
      </trkpt>
      <trkpt lat="48.62669" lon="7.16843">
        <ele>423</ele>
        <time>2023-11-09T11:18:22Z</time>
      </trkpt>
      <trkpt lat="48.62671" lon="7.16871">
        <ele>425.3</ele>
        <time>2023-11-09T11:18:33Z</time>
      </trkpt>
      <trkpt lat="48.62677" lon="7.16899">
        <ele>427.6</ele>
        <time>2023-11-09T11:18:41Z</time>
      </trkpt>
      <trkpt lat="48.62674" lon="7.16928">
        <ele>429.9</ele>
        <time>2023-11-09T11:18:49Z</time>
      </trkpt>
      <trkpt lat="48.62661" lon="7.16951">
        <ele>432.3</ele>
        <time>2023-11-09T11:18:59Z</time>
      </trkpt>
      <trkpt lat="48.62646" lon="7.16974">
        <ele>434.4</ele>
        <time>2023-11-09T11:19:08Z</time>
      </trkpt>
      <trkpt lat="48.62637" lon="7.17">
        <ele>436.4</ele>
        <time>2023-11-09T11:19:17Z</time>
      </trkpt>
      <trkpt lat="48.62626" lon="7.17022">
        <ele>438.2</ele>
        <time>2023-11-09T11:19:24Z</time>
      </trkpt>
      <trkpt lat="48.62615" lon="7.17046">
        <ele>440.2</ele>
        <time>2023-11-09T11:19:32Z</time>
      </trkpt>
      <trkpt lat="48.6261" lon="7.17074">
        <ele>442.4</ele>
        <time>2023-11-09T11:19:40Z</time>
      </trkpt>
      <trkpt lat="48.62603" lon="7.17102">
        <ele>444.3</ele>
        <time>2023-11-09T11:19:49Z</time>
      </trkpt>
      <trkpt lat="48.62601" lon="7.17129">
        <ele>446</ele>
        <time>2023-11-09T11:19:57Z</time>
      </trkpt>
      <trkpt lat="48.62597" lon="7.17159">
        <ele>447.9</ele>
        <time>2023-11-09T11:20:06Z</time>
      </trkpt>
      <trkpt lat="48.62599" lon="7.1719">
        <ele>450</ele>
        <time>2023-11-09T11:20:14Z</time>
      </trkpt>
      <trkpt lat="48.62597" lon="7.1722">
        <ele>452.1</ele>
        <time>2023-11-09T11:20:23Z</time>
      </trkpt>
      <trkpt lat="48.62595" lon="7.17247">
        <ele>453.8</ele>
        <time>2023-11-09T11:20:31Z</time>
      </trkpt>
      <trkpt lat="48.62597" lon="7.17274">
        <ele>455.4</ele>
        <time>2023-11-09T11:20:39Z</time>
      </trkpt>
      <trkpt lat="48.62593" lon="7.17301">
        <ele>457.3</ele>
        <time>2023-11-09T11:20:47Z</time>
      </trkpt>
      <trkpt lat="48.62595" lon="7.17332">
        <ele>459.5</ele>
        <time>2023-11-09T11:20:55Z</time>
      </trkpt>
      <trkpt lat="48.62595" lon="7.1736">
        <ele>461.4</ele>
        <time>2023-11-09T11:21:03Z</time>
      </trkpt>
      <trkpt lat="48.6259" lon="7.17389">
        <ele>463.4</ele>
        <time>2023-11-09T11:21:12Z</time>
      </trkpt>
      <trkpt lat="48.62582" lon="7.17416">
        <ele>465</ele>
        <time>2023-11-09T11:21:20Z</time>
      </trkpt>
      <trkpt lat="48.62574" lon="7.17444">
        <ele>466.9</ele>
        <time>2023-11-09T11:21:28Z</time>
      </trkpt>
      <trkpt lat="48.62577" lon="7.17474">
        <ele>468.8</ele>
        <time>2023-11-09T11:21:37Z</time>
      </trkpt>
      <trkpt lat="48.62581" lon="7.17502">
        <ele>470.7</ele>
        <time>2023-11-09T11:21:45Z</time>
      </trkpt>
      <trkpt lat="48.62582" lon="7.17532">
        <ele>472.6</ele>
        <time>2023-11-09T11:21:53Z</time>
      </trkpt>
      <trkpt lat="48.62581" lon="7.1756">
        <ele>474.2</ele>
        <time>2023-11-09T11:22:01Z</time>
      </trkpt>
      <trkpt lat="48.6258" lon="7.17586">
        <ele>475.8</ele>
        <time>2023-11-09T11:22:08Z</time>
      </trkpt>
      <trkpt lat="48.62576" lon="7.17616">
        <ele>477.6</ele>
        <time>2023-11-09T11:22:16Z</time>
      </trkpt>
      <trkpt lat="48.62574" lon="7.17647">
        <ele>479.5</ele>
        <time>2023-11-09T11:22:23Z</time>
      </trkpt>
      <trkpt lat="48.62576" lon="7.17676">
        <ele>481.3</ele>
        <time>2023-11-09T11:22:30Z</time>
      </trkpt>
      <trkpt lat="48.62573" lon="7.17707">
        <ele>483.1</ele>
        <time>2023-11-09T11:22:37Z</time>
      </trkpt>
      <trkpt lat="48.62571" lon="7.17736">
        <ele>485</ele>
        <time>2023-11-09T11:22:44Z</time>
      </trkpt>
      <trkpt lat="48.62565" lon="7.17762">
        <ele>487.1</ele>
        <time>2023-11-09T11:22:51Z</time>
      </trkpt>
      <trkpt lat="48.62561" lon="7.17789">
        <ele>488.7</ele>
        <time>2023-11-09T11:22:58Z</time>
      </trkpt>
      <trkpt lat="48.62562" lon="7.17791">
        <ele>488.8</ele>
        <time>2023-11-09T11:22:59Z</time>
      </trkpt>
      <trkpt lat="48.62566" lon="7.17792">
        <ele>489</ele>
        <time>2023-11-09T11:23:01Z</time>
      </trkpt>
      <trkpt lat="48.62581" lon="7.17778">
        <ele>488.2</ele>
        <time>2023-11-09T11:23:09Z</time>
      </trkpt>
      <trkpt lat="48.62592" lon="7.1777">
        <ele>487.6</ele>
        <time>2023-11-09T11:24:00Z</time>
      </trkpt>
      <trkpt lat="48.62595" lon="7.17774">
        <ele>487.3</ele>
        <time>2023-11-09T11:24:03Z</time>
      </trkpt>
      <trkpt lat="48.62616" lon="7.17765">
        <ele>486.1</ele>
        <time>2023-11-09T11:24:10Z</time>
      </trkpt>
      <trkpt lat="48.62634" lon="7.17754">
        <ele>485.1</ele>
        <time>2023-11-09T11:24:16Z</time>
      </trkpt>
      <trkpt lat="48.62652" lon="7.17746">
        <ele>485.3</ele>
        <time>2023-11-09T11:24:22Z</time>
      </trkpt>
      <trkpt lat="48.62669" lon="7.17732">
        <ele>487</ele>
        <time>2023-11-09T11:24:31Z</time>
      </trkpt>
      <trkpt lat="48.62686" lon="7.1772">
        <ele>489.1</ele>
        <time>2023-11-09T11:24:39Z</time>
      </trkpt>
      <trkpt lat="48.62703" lon="7.17705">
        <ele>490.7</ele>
        <time>2023-11-09T11:24:46Z</time>
      </trkpt>
      <trkpt lat="48.62719" lon="7.17695">
        <ele>491.8</ele>
        <time>2023-11-09T11:24:52Z</time>
      </trkpt>
      <trkpt lat="48.62737" lon="7.17681">
        <ele>492.8</ele>
        <time>2023-11-09T11:25:00Z</time>
      </trkpt>
      <trkpt lat="48.62756" lon="7.17666">
        <ele>493.9</ele>
        <time>2023-11-09T11:25:07Z</time>
      </trkpt>
      <trkpt lat="48.62769" lon="7.17648">
        <ele>495.2</ele>
        <time>2023-11-09T11:25:14Z</time>
      </trkpt>
      <trkpt lat="48.62783" lon="7.17627">
        <ele>496.6</ele>
        <time>2023-11-09T11:25:21Z</time>
      </trkpt>
      <trkpt lat="48.62797" lon="7.1761">
        <ele>498.1</ele>
        <time>2023-11-09T11:25:28Z</time>
      </trkpt>
      <trkpt lat="48.62813" lon="7.17593">
        <ele>500</ele>
        <time>2023-11-09T11:25:35Z</time>
      </trkpt>
      <trkpt lat="48.62828" lon="7.17578">
        <ele>502.7</ele>
        <time>2023-11-09T11:25:44Z</time>
      </trkpt>
      <trkpt lat="48.6284" lon="7.17555">
        <ele>506.1</ele>
        <time>2023-11-09T11:25:54Z</time>
      </trkpt>
      <trkpt lat="48.6285" lon="7.17532">
        <ele>508.8</ele>
        <time>2023-11-09T11:26:02Z</time>
      </trkpt>
      <trkpt lat="48.62855" lon="7.17506">
        <ele>505.8</ele>
        <time>2023-11-09T11:26:10Z</time>
      </trkpt>
      <trkpt lat="48.62861" lon="7.1748">
        <ele>502.7</ele>
        <time>2023-11-09T11:26:16Z</time>
      </trkpt>
      <trkpt lat="48.62871" lon="7.17454">
        <ele>500.4</ele>
        <time>2023-11-09T11:26:23Z</time>
      </trkpt>
      <trkpt lat="48.62883" lon="7.17431">
        <ele>499</ele>
        <time>2023-11-09T11:26:32Z</time>
      </trkpt>
      <trkpt lat="48.62897" lon="7.17413">
        <ele>498.4</ele>
        <time>2023-11-09T11:26:38Z</time>
      </trkpt>
      <trkpt lat="48.62911" lon="7.17393">
        <ele>497.6</ele>
        <time>2023-11-09T11:26:45Z</time>
      </trkpt>
      <trkpt lat="48.62927" lon="7.17372">
        <ele>496.4</ele>
        <time>2023-11-09T11:26:52Z</time>
      </trkpt>
      <trkpt lat="48.62943" lon="7.17356">
        <ele>495.4</ele>
        <time>2023-11-09T11:26:57Z</time>
      </trkpt>
      <trkpt lat="48.62957" lon="7.17335">
        <ele>495.1</ele>
        <time>2023-11-09T11:27:02Z</time>
      </trkpt>
      <trkpt lat="48.62972" lon="7.17314">
        <ele>495.4</ele>
        <time>2023-11-09T11:27:08Z</time>
      </trkpt>
      <trkpt lat="48.62988" lon="7.17297">
        <ele>495.2</ele>
        <time>2023-11-09T11:27:15Z</time>
      </trkpt>
      <trkpt lat="48.63003" lon="7.17279">
        <ele>494.6</ele>
        <time>2023-11-09T11:27:21Z</time>
      </trkpt>
      <trkpt lat="48.63017" lon="7.17255">
        <ele>494.2</ele>
        <time>2023-11-09T11:27:27Z</time>
      </trkpt>
      <trkpt lat="48.63031" lon="7.17232">
        <ele>494</ele>
        <time>2023-11-09T11:27:34Z</time>
      </trkpt>
      <trkpt lat="48.63046" lon="7.17212">
        <ele>493.7</ele>
        <time>2023-11-09T11:27:40Z</time>
      </trkpt>
      <trkpt lat="48.63058" lon="7.17192">
        <ele>492.9</ele>
        <time>2023-11-09T11:27:46Z</time>
      </trkpt>
      <trkpt lat="48.63066" lon="7.17166">
        <ele>491.5</ele>
        <time>2023-11-09T11:27:52Z</time>
      </trkpt>
      <trkpt lat="48.63076" lon="7.17138">
        <ele>489.5</ele>
        <time>2023-11-09T11:27:59Z</time>
      </trkpt>
      <trkpt lat="48.63087" lon="7.17114">
        <ele>488.3</ele>
        <time>2023-11-09T11:28:05Z</time>
      </trkpt>
      <trkpt lat="48.63104" lon="7.17107">
        <ele>489.5</ele>
        <time>2023-11-09T11:28:13Z</time>
      </trkpt>
      <trkpt lat="48.63124" lon="7.1711">
        <ele>491.7</ele>
        <time>2023-11-09T11:28:26Z</time>
      </trkpt>
      <trkpt lat="48.63142" lon="7.1711">
        <ele>491.1</ele>
        <time>2023-11-09T11:28:33Z</time>
      </trkpt>
      <trkpt lat="48.63158" lon="7.17115">
        <ele>489.7</ele>
        <time>2023-11-09T11:28:38Z</time>
      </trkpt>
      <trkpt lat="48.63173" lon="7.17132">
        <ele>489.2</ele>
        <time>2023-11-09T11:28:44Z</time>
      </trkpt>
      <trkpt lat="48.63191" lon="7.1714">
        <ele>489.1</ele>
        <time>2023-11-09T11:28:51Z</time>
      </trkpt>
      <trkpt lat="48.6321" lon="7.17155">
        <ele>488.4</ele>
        <time>2023-11-09T11:28:58Z</time>
      </trkpt>
      <trkpt lat="48.63229" lon="7.1716">
        <ele>487.8</ele>
        <time>2023-11-09T11:29:03Z</time>
      </trkpt>
      <trkpt lat="48.63249" lon="7.17166">
        <ele>488</ele>
        <time>2023-11-09T11:29:10Z</time>
      </trkpt>
      <trkpt lat="48.63268" lon="7.17163">
        <ele>489.1</ele>
        <time>2023-11-09T11:29:19Z</time>
      </trkpt>
      <trkpt lat="48.63284" lon="7.17153">
        <ele>490</ele>
        <time>2023-11-09T11:29:26Z</time>
      </trkpt>
      <trkpt lat="48.63303" lon="7.17141">
        <ele>490.2</ele>
        <time>2023-11-09T11:29:33Z</time>
      </trkpt>
      <trkpt lat="48.63319" lon="7.17129">
        <ele>490.4</ele>
        <time>2023-11-09T11:29:40Z</time>
      </trkpt>
      <trkpt lat="48.63335" lon="7.17113">
        <ele>490.3</ele>
        <time>2023-11-09T11:29:46Z</time>
      </trkpt>
      <trkpt lat="48.6335" lon="7.17098">
        <ele>489.6</ele>
        <time>2023-11-09T11:29:51Z</time>
      </trkpt>
      <trkpt lat="48.63364" lon="7.17074">
        <ele>488.2</ele>
        <time>2023-11-09T11:29:57Z</time>
      </trkpt>
      <trkpt lat="48.63376" lon="7.17053">
        <ele>486.5</ele>
        <time>2023-11-09T11:30:03Z</time>
      </trkpt>
      <trkpt lat="48.63385" lon="7.1703">
        <ele>484.9</ele>
        <time>2023-11-09T11:30:10Z</time>
      </trkpt>
      <trkpt lat="48.63381" lon="7.17002">
        <ele>484.6</ele>
        <time>2023-11-09T11:30:16Z</time>
      </trkpt>
      <trkpt lat="48.63384" lon="7.16974">
        <ele>484.6</ele>
        <time>2023-11-09T11:30:24Z</time>
      </trkpt>
      <trkpt lat="48.63383" lon="7.16973">
        <ele>484.5</ele>
        <time>2023-11-09T11:30:25Z</time>
      </trkpt>
      <trkpt lat="48.63385" lon="7.16943">
        <ele>482.7</ele>
        <time>2023-11-09T11:30:31Z</time>
      </trkpt>
      <trkpt lat="48.63382" lon="7.16915">
        <ele>480.4</ele>
        <time>2023-11-09T11:30:38Z</time>
      </trkpt>
      <trkpt lat="48.63388" lon="7.16883">
        <ele>478.4</ele>
        <time>2023-11-09T11:30:44Z</time>
      </trkpt>
      <trkpt lat="48.63394" lon="7.16852">
        <ele>476.9</ele>
        <time>2023-11-09T11:30:50Z</time>
      </trkpt>
      <trkpt lat="48.63404" lon="7.16828">
        <ele>475.3</ele>
        <time>2023-11-09T11:30:55Z</time>
      </trkpt>
      <trkpt lat="48.63415" lon="7.16806">
        <ele>472.7</ele>
        <time>2023-11-09T11:31:01Z</time>
      </trkpt>
      <trkpt lat="48.63427" lon="7.16785">
        <ele>469</ele>
        <time>2023-11-09T11:31:07Z</time>
      </trkpt>
      <trkpt lat="48.63443" lon="7.16771">
        <ele>466.5</ele>
        <time>2023-11-09T11:31:12Z</time>
      </trkpt>
      <trkpt lat="48.63463" lon="7.16759">
        <ele>464.6</ele>
        <time>2023-11-09T11:31:19Z</time>
      </trkpt>
      <trkpt lat="48.63481" lon="7.1675">
        <ele>463.4</ele>
        <time>2023-11-09T11:31:24Z</time>
      </trkpt>
      <trkpt lat="48.63499" lon="7.1674">
        <ele>462.5</ele>
        <time>2023-11-09T11:31:29Z</time>
      </trkpt>
      <trkpt lat="48.63516" lon="7.16727">
        <ele>462.5</ele>
        <time>2023-11-09T11:31:36Z</time>
      </trkpt>
      <trkpt lat="48.63532" lon="7.16712">
        <ele>461.8</ele>
        <time>2023-11-09T11:31:43Z</time>
      </trkpt>
      <trkpt lat="48.63546" lon="7.16695">
        <ele>461.2</ele>
        <time>2023-11-09T11:31:49Z</time>
      </trkpt>
      <trkpt lat="48.63559" lon="7.16674">
        <ele>461.5</ele>
        <time>2023-11-09T11:31:57Z</time>
      </trkpt>
      <trkpt lat="48.63557" lon="7.16648">
        <ele>462.1</ele>
        <time>2023-11-09T11:32:07Z</time>
      </trkpt>
      <trkpt lat="48.6356" lon="7.1662">
        <ele>462.6</ele>
        <time>2023-11-09T11:32:15Z</time>
      </trkpt>
      <trkpt lat="48.63563" lon="7.1659">
        <ele>461</ele>
        <time>2023-11-09T11:32:23Z</time>
      </trkpt>
      <trkpt lat="48.63564" lon="7.16557">
        <ele>456.8</ele>
        <time>2023-11-09T11:32:28Z</time>
      </trkpt>
      <trkpt lat="48.63575" lon="7.16532">
        <ele>454.6</ele>
        <time>2023-11-09T11:32:33Z</time>
      </trkpt>
      <trkpt lat="48.63587" lon="7.16508">
        <ele>453.5</ele>
        <time>2023-11-09T11:32:39Z</time>
      </trkpt>
      <trkpt lat="48.636" lon="7.16483">
        <ele>452.1</ele>
        <time>2023-11-09T11:32:46Z</time>
      </trkpt>
      <trkpt lat="48.63617" lon="7.16466">
        <ele>450.8</ele>
        <time>2023-11-09T11:32:52Z</time>
      </trkpt>
      <trkpt lat="48.63633" lon="7.16449">
        <ele>450.7</ele>
        <time>2023-11-09T11:32:59Z</time>
      </trkpt>
      <trkpt lat="48.63651" lon="7.16435">
        <ele>450.7</ele>
        <time>2023-11-09T11:33:05Z</time>
      </trkpt>
      <trkpt lat="48.63668" lon="7.1642">
        <ele>450.4</ele>
        <time>2023-11-09T11:33:11Z</time>
      </trkpt>
      <trkpt lat="48.63685" lon="7.16408">
        <ele>450.8</ele>
        <time>2023-11-09T11:33:17Z</time>
      </trkpt>
      <trkpt lat="48.63703" lon="7.16399">
        <ele>452.1</ele>
        <time>2023-11-09T11:33:26Z</time>
      </trkpt>
      <trkpt lat="48.63721" lon="7.16395">
        <ele>453.7</ele>
        <time>2023-11-09T11:33:35Z</time>
      </trkpt>
      <trkpt lat="48.63738" lon="7.16384">
        <ele>455.3</ele>
        <time>2023-11-09T11:33:43Z</time>
      </trkpt>
      <trkpt lat="48.63756" lon="7.16378">
        <ele>456.5</ele>
        <time>2023-11-09T11:33:50Z</time>
      </trkpt>
      <trkpt lat="48.63772" lon="7.1636">
        <ele>456.4</ele>
        <time>2023-11-09T11:33:57Z</time>
      </trkpt>
      <trkpt lat="48.63789" lon="7.1634">
        <ele>454.1</ele>
        <time>2023-11-09T11:34:04Z</time>
      </trkpt>
      <trkpt lat="48.63808" lon="7.16321">
        <ele>451.1</ele>
        <time>2023-11-09T11:34:10Z</time>
      </trkpt>
      <trkpt lat="48.63827" lon="7.16314">
        <ele>449.3</ele>
        <time>2023-11-09T11:34:16Z</time>
      </trkpt>
      <trkpt lat="48.63846" lon="7.16313">
        <ele>449.4</ele>
        <time>2023-11-09T11:34:24Z</time>
      </trkpt>
      <trkpt lat="48.63862" lon="7.16324">
        <ele>449.7</ele>
        <time>2023-11-09T11:34:31Z</time>
      </trkpt>
      <trkpt lat="48.63881" lon="7.16336">
        <ele>449.1</ele>
        <time>2023-11-09T11:34:39Z</time>
      </trkpt>
      <trkpt lat="48.63898" lon="7.16351">
        <ele>447.3</ele>
        <time>2023-11-09T11:34:46Z</time>
      </trkpt>
      <trkpt lat="48.639" lon="7.16359">
        <ele>446.7</ele>
        <time>2023-11-09T11:34:48Z</time>
      </trkpt>
      <trkpt lat="48.63904" lon="7.16388">
        <ele>446.3</ele>
        <time>2023-11-09T11:34:55Z</time>
      </trkpt>
      <trkpt lat="48.63914" lon="7.16416">
        <ele>447</ele>
        <time>2023-11-09T11:35:02Z</time>
      </trkpt>
      <trkpt lat="48.63916" lon="7.16447">
        <ele>447</ele>
        <time>2023-11-09T11:35:09Z</time>
      </trkpt>
      <trkpt lat="48.63913" lon="7.16477">
        <ele>446.4</ele>
        <time>2023-11-09T11:35:18Z</time>
      </trkpt>
      <trkpt lat="48.63905" lon="7.16503">
        <ele>444.5</ele>
        <time>2023-11-09T11:35:24Z</time>
      </trkpt>
      <trkpt lat="48.63892" lon="7.16525">
        <ele>441.8</ele>
        <time>2023-11-09T11:35:31Z</time>
      </trkpt>
      <trkpt lat="48.63884" lon="7.16553">
        <ele>440</ele>
        <time>2023-11-09T11:35:37Z</time>
      </trkpt>
      <trkpt lat="48.63875" lon="7.16579">
        <ele>438.7</ele>
        <time>2023-11-09T11:35:43Z</time>
      </trkpt>
      <trkpt lat="48.63869" lon="7.1661">
        <ele>436.7</ele>
        <time>2023-11-09T11:35:49Z</time>
      </trkpt>
      <trkpt lat="48.63868" lon="7.16638">
        <ele>434.5</ele>
        <time>2023-11-09T11:35:54Z</time>
      </trkpt>
      <trkpt lat="48.63864" lon="7.16666">
        <ele>433</ele>
        <time>2023-11-09T11:36:01Z</time>
      </trkpt>
      <trkpt lat="48.63861" lon="7.16694">
        <ele>432.5</ele>
        <time>2023-11-09T11:36:09Z</time>
      </trkpt>
      <trkpt lat="48.63869" lon="7.1672">
        <ele>433.1</ele>
        <time>2023-11-09T11:36:19Z</time>
      </trkpt>
      <trkpt lat="48.6388" lon="7.16743">
        <ele>434.4</ele>
        <time>2023-11-09T11:36:29Z</time>
      </trkpt>
      <trkpt lat="48.63884" lon="7.16745">
        <ele>434.7</ele>
        <time>2023-11-09T11:36:31Z</time>
      </trkpt>
      <trkpt lat="48.63896" lon="7.16754">
        <ele>436</ele>
        <time>2023-11-09T11:36:38Z</time>
      </trkpt>
      <trkpt lat="48.63916" lon="7.16758">
        <ele>437.9</ele>
        <time>2023-11-09T11:36:46Z</time>
      </trkpt>
      <trkpt lat="48.63936" lon="7.16759">
        <ele>440</ele>
        <time>2023-11-09T11:36:55Z</time>
      </trkpt>
      <trkpt lat="48.63956" lon="7.16762">
        <ele>441.4</ele>
        <time>2023-11-09T11:37:03Z</time>
      </trkpt>
      <trkpt lat="48.63973" lon="7.16771">
        <ele>442.4</ele>
        <time>2023-11-09T11:37:11Z</time>
      </trkpt>
      <trkpt lat="48.63992" lon="7.16767">
        <ele>443.8</ele>
        <time>2023-11-09T11:37:19Z</time>
      </trkpt>
      <trkpt lat="48.64011" lon="7.16758">
        <ele>444.4</ele>
        <time>2023-11-09T11:37:27Z</time>
      </trkpt>
      <trkpt lat="48.64017" lon="7.16753">
        <ele>444.1</ele>
        <time>2023-11-09T11:37:31Z</time>
      </trkpt>
      <trkpt lat="48.64034" lon="7.16741">
        <ele>442</ele>
        <time>2023-11-09T11:37:38Z</time>
      </trkpt>
      <trkpt lat="48.64051" lon="7.16725">
        <ele>440.7</ele>
        <time>2023-11-09T11:37:44Z</time>
      </trkpt>
      <trkpt lat="48.64069" lon="7.1672">
        <ele>442.1</ele>
        <time>2023-11-09T11:37:52Z</time>
      </trkpt>
      <trkpt lat="48.64088" lon="7.16714">
        <ele>442.7</ele>
        <time>2023-11-09T11:38:01Z</time>
      </trkpt>
      <trkpt lat="48.64106" lon="7.16705">
        <ele>441.5</ele>
        <time>2023-11-09T11:38:09Z</time>
      </trkpt>
      <trkpt lat="48.64125" lon="7.16695">
        <ele>440.5</ele>
        <time>2023-11-09T11:38:15Z</time>
      </trkpt>
      <trkpt lat="48.64144" lon="7.16683">
        <ele>440.7</ele>
        <time>2023-11-09T11:38:21Z</time>
      </trkpt>
      <trkpt lat="48.64162" lon="7.16673">
        <ele>439.8</ele>
        <time>2023-11-09T11:38:29Z</time>
      </trkpt>
      <trkpt lat="48.64173" lon="7.1665">
        <ele>438.3</ele>
        <time>2023-11-09T11:38:38Z</time>
      </trkpt>
      <trkpt lat="48.64187" lon="7.16631">
        <ele>437.1</ele>
        <time>2023-11-09T11:38:45Z</time>
      </trkpt>
      <trkpt lat="48.64202" lon="7.1661">
        <ele>435.7</ele>
        <time>2023-11-09T11:38:53Z</time>
      </trkpt>
      <trkpt lat="48.64219" lon="7.16593">
        <ele>434.2</ele>
        <time>2023-11-09T11:39:02Z</time>
      </trkpt>
      <trkpt lat="48.64224" lon="7.16581">
        <ele>433.2</ele>
        <time>2023-11-09T11:39:06Z</time>
      </trkpt>
      <trkpt lat="48.64222" lon="7.16552">
        <ele>431.6</ele>
        <time>2023-11-09T11:39:14Z</time>
      </trkpt>
      <trkpt lat="48.64229" lon="7.16523">
        <ele>430.9</ele>
        <time>2023-11-09T11:39:21Z</time>
      </trkpt>
      <trkpt lat="48.64233" lon="7.16495">
        <ele>430.2</ele>
        <time>2023-11-09T11:39:29Z</time>
      </trkpt>
      <trkpt lat="48.64244" lon="7.16469">
        <ele>431.3</ele>
        <time>2023-11-09T11:39:37Z</time>
      </trkpt>
      <trkpt lat="48.64254" lon="7.16445">
        <ele>432.4</ele>
        <time>2023-11-09T11:39:46Z</time>
      </trkpt>
      <trkpt lat="48.64262" lon="7.16419">
        <ele>432.8</ele>
        <time>2023-11-09T11:39:53Z</time>
      </trkpt>
      <trkpt lat="48.64269" lon="7.16396">
        <ele>432.7</ele>
        <time>2023-11-09T11:40:02Z</time>
      </trkpt>
      <trkpt lat="48.6427" lon="7.16375">
        <ele>433.5</ele>
        <time>2023-11-09T11:40:09Z</time>
      </trkpt>
      <trkpt lat="48.64278" lon="7.16349">
        <ele>434</ele>
        <time>2023-11-09T11:40:19Z</time>
      </trkpt>
      <trkpt lat="48.64282" lon="7.16335">
        <ele>433.4</ele>
        <time>2023-11-09T11:40:24Z</time>
      </trkpt>
      <trkpt lat="48.64285" lon="7.16305">
        <ele>431.8</ele>
        <time>2023-11-09T11:40:33Z</time>
      </trkpt>
      <trkpt lat="48.64288" lon="7.16275">
        <ele>430.9</ele>
        <time>2023-11-09T11:40:41Z</time>
      </trkpt>
      <trkpt lat="48.6429" lon="7.16247">
        <ele>430.6</ele>
        <time>2023-11-09T11:40:48Z</time>
      </trkpt>
      <trkpt lat="48.64288" lon="7.16217">
        <ele>429.2</ele>
        <time>2023-11-09T11:40:56Z</time>
      </trkpt>
      <trkpt lat="48.64292" lon="7.16188">
        <ele>428.7</ele>
        <time>2023-11-09T11:41:04Z</time>
      </trkpt>
      <trkpt lat="48.64302" lon="7.16161">
        <ele>428.9</ele>
        <time>2023-11-09T11:41:11Z</time>
      </trkpt>
      <trkpt lat="48.64313" lon="7.16135">
        <ele>429.5</ele>
        <time>2023-11-09T11:41:18Z</time>
      </trkpt>
      <trkpt lat="48.64326" lon="7.16116">
        <ele>431.4</ele>
        <time>2023-11-09T11:41:26Z</time>
      </trkpt>
      <trkpt lat="48.64344" lon="7.16105">
        <ele>431</ele>
        <time>2023-11-09T11:41:38Z</time>
      </trkpt>
      <trkpt lat="48.64358" lon="7.16086">
        <ele>427.6</ele>
        <time>2023-11-09T11:41:46Z</time>
      </trkpt>
      <trkpt lat="48.64373" lon="7.16068">
        <ele>423.5</ele>
        <time>2023-11-09T11:41:53Z</time>
      </trkpt>
      <trkpt lat="48.64392" lon="7.16056">
        <ele>419.1</ele>
        <time>2023-11-09T11:41:59Z</time>
      </trkpt>
      <trkpt lat="48.64407" lon="7.16041">
        <ele>414.8</ele>
        <time>2023-11-09T11:42:05Z</time>
      </trkpt>
      <trkpt lat="48.64419" lon="7.16021">
        <ele>412.2</ele>
        <time>2023-11-09T11:42:11Z</time>
      </trkpt>
      <trkpt lat="48.64434" lon="7.16003">
        <ele>406.5</ele>
        <time>2023-11-09T11:42:20Z</time>
      </trkpt>
      <trkpt lat="48.6445" lon="7.15988">
        <ele>401</ele>
        <time>2023-11-09T11:42:28Z</time>
      </trkpt>
      <trkpt lat="48.64467" lon="7.15978">
        <ele>395.6</ele>
        <time>2023-11-09T11:42:35Z</time>
      </trkpt>
      <trkpt lat="48.64486" lon="7.15971">
        <ele>390.3</ele>
        <time>2023-11-09T11:42:42Z</time>
      </trkpt>
      <trkpt lat="48.64503" lon="7.15962">
        <ele>385.8</ele>
        <time>2023-11-09T11:42:48Z</time>
      </trkpt>
      <trkpt lat="48.64523" lon="7.15957">
        <ele>381</ele>
        <time>2023-11-09T11:42:54Z</time>
      </trkpt>
      <trkpt lat="48.64541" lon="7.15955">
        <ele>376</ele>
        <time>2023-11-09T11:42:59Z</time>
      </trkpt>
      <trkpt lat="48.6456" lon="7.15956">
        <ele>370.7</ele>
        <time>2023-11-09T11:43:05Z</time>
      </trkpt>
      <trkpt lat="48.64579" lon="7.15957">
        <ele>366</ele>
        <time>2023-11-09T11:43:10Z</time>
      </trkpt>
      <trkpt lat="48.64598" lon="7.15961">
        <ele>361.3</ele>
        <time>2023-11-09T11:43:17Z</time>
      </trkpt>
      <trkpt lat="48.64617" lon="7.15965">
        <ele>357.2</ele>
        <time>2023-11-09T11:43:24Z</time>
      </trkpt>
      <trkpt lat="48.64634" lon="7.15976">
        <ele>352.6</ele>
        <time>2023-11-09T11:43:31Z</time>
      </trkpt>
      <trkpt lat="48.64655" lon="7.15974">
        <ele>347.9</ele>
        <time>2023-11-09T11:43:37Z</time>
      </trkpt>
      <trkpt lat="48.64658" lon="7.15976">
        <ele>347.3</ele>
        <time>2023-11-09T11:43:38Z</time>
      </trkpt>
      <trkpt lat="48.64677" lon="7.15988">
        <ele>346.1</ele>
        <time>2023-11-09T11:43:43Z</time>
      </trkpt>
      <trkpt lat="48.64695" lon="7.16001">
        <ele>345.5</ele>
        <time>2023-11-09T11:43:49Z</time>
      </trkpt>
      <trkpt lat="48.64712" lon="7.16013">
        <ele>344.9</ele>
        <time>2023-11-09T11:43:55Z</time>
      </trkpt>
      <trkpt lat="48.6473" lon="7.16014">
        <ele>344.4</ele>
        <time>2023-11-09T11:44:01Z</time>
      </trkpt>
      <trkpt lat="48.64746" lon="7.15997">
        <ele>343.7</ele>
        <time>2023-11-09T11:44:08Z</time>
      </trkpt>
      <trkpt lat="48.6476" lon="7.15972">
        <ele>343.1</ele>
        <time>2023-11-09T11:44:15Z</time>
      </trkpt>
      <trkpt lat="48.64769" lon="7.15944">
        <ele>342.6</ele>
        <time>2023-11-09T11:44:22Z</time>
      </trkpt>
      <trkpt lat="48.64778" lon="7.15919">
        <ele>342.6</ele>
        <time>2023-11-09T11:44:29Z</time>
      </trkpt>
      <trkpt lat="48.64785" lon="7.1589">
        <ele>342.7</ele>
        <time>2023-11-09T11:44:36Z</time>
      </trkpt>
      <trkpt lat="48.64782" lon="7.15863">
        <ele>342.7</ele>
        <time>2023-11-09T11:44:42Z</time>
      </trkpt>
      <trkpt lat="48.64774" lon="7.15837">
        <ele>342.6</ele>
        <time>2023-11-09T11:44:48Z</time>
      </trkpt>
      <trkpt lat="48.64766" lon="7.15808">
        <ele>342.6</ele>
        <time>2023-11-09T11:44:55Z</time>
      </trkpt>
      <trkpt lat="48.6476" lon="7.15782">
        <ele>342.3</ele>
        <time>2023-11-09T11:45:01Z</time>
      </trkpt>
      <trkpt lat="48.64758" lon="7.15754">
        <ele>341.7</ele>
        <time>2023-11-09T11:45:07Z</time>
      </trkpt>
      <trkpt lat="48.64763" lon="7.15726">
        <ele>341</ele>
        <time>2023-11-09T11:45:13Z</time>
      </trkpt>
      <trkpt lat="48.64775" lon="7.15702">
        <ele>340.5</ele>
        <time>2023-11-09T11:45:19Z</time>
      </trkpt>
      <trkpt lat="48.64789" lon="7.15679">
        <ele>339.9</ele>
        <time>2023-11-09T11:45:25Z</time>
      </trkpt>
      <trkpt lat="48.64801" lon="7.15655">
        <ele>339.5</ele>
        <time>2023-11-09T11:45:31Z</time>
      </trkpt>
      <trkpt lat="48.6481" lon="7.15627">
        <ele>339.1</ele>
        <time>2023-11-09T11:45:38Z</time>
      </trkpt>
      <trkpt lat="48.64817" lon="7.156">
        <ele>338.7</ele>
        <time>2023-11-09T11:45:44Z</time>
      </trkpt>
      <trkpt lat="48.64823" lon="7.15572">
        <ele>338.2</ele>
        <time>2023-11-09T11:45:50Z</time>
      </trkpt>
      <trkpt lat="48.64829" lon="7.15546">
        <ele>337.7</ele>
        <time>2023-11-09T11:45:56Z</time>
      </trkpt>
      <trkpt lat="48.64835" lon="7.15516">
        <ele>337</ele>
        <time>2023-11-09T11:46:03Z</time>
      </trkpt>
      <trkpt lat="48.64843" lon="7.15489">
        <ele>335.7</ele>
        <time>2023-11-09T11:46:09Z</time>
      </trkpt>
      <trkpt lat="48.64852" lon="7.15463">
        <ele>332.3</ele>
        <time>2023-11-09T11:46:15Z</time>
      </trkpt>
      <trkpt lat="48.6486" lon="7.15433">
        <ele>332</ele>
        <time>2023-11-09T11:46:21Z</time>
      </trkpt>
      <trkpt lat="48.6487" lon="7.15406">
        <ele>331.8</ele>
        <time>2023-11-09T11:46:27Z</time>
      </trkpt>
      <trkpt lat="48.6488" lon="7.15377">
        <ele>331.6</ele>
        <time>2023-11-09T11:46:33Z</time>
      </trkpt>
      <trkpt lat="48.64891" lon="7.15353">
        <ele>331.5</ele>
        <time>2023-11-09T11:46:39Z</time>
      </trkpt>
      <trkpt lat="48.64904" lon="7.15331">
        <ele>331.5</ele>
        <time>2023-11-09T11:46:45Z</time>
      </trkpt>
      <trkpt lat="48.64919" lon="7.15313">
        <ele>331.5</ele>
        <time>2023-11-09T11:46:51Z</time>
      </trkpt>
      <trkpt lat="48.64934" lon="7.15295">
        <ele>331.4</ele>
        <time>2023-11-09T11:46:57Z</time>
      </trkpt>
      <trkpt lat="48.64949" lon="7.15272">
        <ele>331.4</ele>
        <time>2023-11-09T11:47:03Z</time>
      </trkpt>
      <trkpt lat="48.64964" lon="7.15252">
        <ele>331.4</ele>
        <time>2023-11-09T11:47:09Z</time>
      </trkpt>
      <trkpt lat="48.64979" lon="7.15234">
        <ele>331.3</ele>
        <time>2023-11-09T11:47:15Z</time>
      </trkpt>
      <trkpt lat="48.64994" lon="7.15215">
        <ele>331.2</ele>
        <time>2023-11-09T11:47:21Z</time>
      </trkpt>
      <trkpt lat="48.65008" lon="7.15198">
        <ele>331.2</ele>
        <time>2023-11-09T11:47:27Z</time>
      </trkpt>
      <trkpt lat="48.65022" lon="7.1518">
        <ele>331.1</ele>
        <time>2023-11-09T11:47:33Z</time>
      </trkpt>
      <trkpt lat="48.65039" lon="7.15161">
        <ele>330.9</ele>
        <time>2023-11-09T11:47:40Z</time>
      </trkpt>
      <trkpt lat="48.65056" lon="7.15144">
        <ele>330.8</ele>
        <time>2023-11-09T11:47:47Z</time>
      </trkpt>
      <trkpt lat="48.65073" lon="7.15127">
        <ele>330.6</ele>
        <time>2023-11-09T11:47:54Z</time>
      </trkpt>
      <trkpt lat="48.65088" lon="7.15107">
        <ele>330.3</ele>
        <time>2023-11-09T11:48:01Z</time>
      </trkpt>
      <trkpt lat="48.65104" lon="7.1509">
        <ele>329.9</ele>
        <time>2023-11-09T11:48:08Z</time>
      </trkpt>
      <trkpt lat="48.65122" lon="7.15075">
        <ele>329.5</ele>
        <time>2023-11-09T11:48:15Z</time>
      </trkpt>
      <trkpt lat="48.65139" lon="7.15064">
        <ele>329</ele>
        <time>2023-11-09T11:48:21Z</time>
      </trkpt>
      <trkpt lat="48.65159" lon="7.15056">
        <ele>328.5</ele>
        <time>2023-11-09T11:48:27Z</time>
      </trkpt>
      <trkpt lat="48.65176" lon="7.15047">
        <ele>328</ele>
        <time>2023-11-09T11:48:32Z</time>
      </trkpt>
      <trkpt lat="48.65195" lon="7.15035">
        <ele>327.5</ele>
        <time>2023-11-09T11:48:38Z</time>
      </trkpt>
      <trkpt lat="48.65213" lon="7.15024">
        <ele>327.1</ele>
        <time>2023-11-09T11:48:44Z</time>
      </trkpt>
      <trkpt lat="48.65233" lon="7.15015">
        <ele>326.8</ele>
        <time>2023-11-09T11:48:51Z</time>
      </trkpt>
      <trkpt lat="48.65254" lon="7.15008">
        <ele>326.7</ele>
        <time>2023-11-09T11:48:58Z</time>
      </trkpt>
      <trkpt lat="48.65274" lon="7.15006">
        <ele>326.5</ele>
        <time>2023-11-09T11:49:05Z</time>
      </trkpt>
      <trkpt lat="48.65294" lon="7.15009">
        <ele>326.2</ele>
        <time>2023-11-09T11:49:12Z</time>
      </trkpt>
      <trkpt lat="48.65315" lon="7.15009">
        <ele>326</ele>
        <time>2023-11-09T11:49:19Z</time>
      </trkpt>
      <trkpt lat="48.65333" lon="7.15009">
        <ele>325.8</ele>
        <time>2023-11-09T11:49:25Z</time>
      </trkpt>
      <trkpt lat="48.65353" lon="7.15011">
        <ele>325.8</ele>
        <time>2023-11-09T11:49:32Z</time>
      </trkpt>
      <trkpt lat="48.65361" lon="7.14987">
        <ele>325.6</ele>
        <time>2023-11-09T11:49:39Z</time>
      </trkpt>
      <trkpt lat="48.65368" lon="7.1496">
        <ele>325.3</ele>
        <time>2023-11-09T11:49:46Z</time>
      </trkpt>
      <trkpt lat="48.65377" lon="7.14933">
        <ele>325.2</ele>
        <time>2023-11-09T11:49:53Z</time>
      </trkpt>
      <trkpt lat="48.65389" lon="7.1491">
        <ele>325.2</ele>
        <time>2023-11-09T11:49:59Z</time>
      </trkpt>
      <trkpt lat="48.65387" lon="7.14881">
        <ele>325.2</ele>
        <time>2023-11-09T11:50:06Z</time>
      </trkpt>
      <trkpt lat="48.65377" lon="7.14874">
        <ele>325.2</ele>
        <time>2023-11-09T11:50:12Z</time>
      </trkpt>
    </trkseg>
  </trk>
</gpx>